Time;durP1;ratioP1;P1;durP2;ratioP2;P2;SDS_P1;SDS_P2;PMS_P1;PMS_P2;Temp;Humidity;BMP_temperature;BMP_pressure;BME280_temperature;BME280_humidity;BME280_pressure;Samples;Min_cycle;Max_cycle;Signal;HPM_P1;HPM_P2
2024/03/22 00:01:46;;;;;;;25.37;18.50;;;14.30;99.90;;;;;;5085264;28;20420;-59
2024/03/22 00:04:12;;;;;;;25.43;17.77;;;14.30;99.90;;;;;;5103423;28;20978;-59
2024/03/22 00:06:38;;;;;;;25.60;17.93;;;14.30;99.90;;;;;;5111173;28;20455;-59
2024/03/22 00:09:05;;;;;;;26.30;18.33;;;14.30;99.90;;;;;;5114214;28;20743;-59
2024/03/22 00:11:30;;;;;;;27.63;19.33;;;14.20;99.90;;;;;;5112944;28;20423;-59
2024/03/22 00:13:56;;;;;;;25.57;18.07;;;14.20;99.90;;;;;;5108994;28;20523;-59
2024/03/22 00:16:22;;;;;;;25.07;17.17;;;14.20;99.90;;;;;;5112712;28;20205;-59
2024/03/22 00:18:48;;;;;;;25.23;18.60;;;14.20;99.90;;;;;;5099982;28;20261;-59
2024/03/22 00:21:14;;;;;;;25.43;17.67;;;14.20;99.90;;;;;;5114405;28;20166;-59
2024/03/22 00:23:39;;;;;;;26.50;17.67;;;14.20;99.90;;;;;;5107293;28;20170;-59
2024/03/22 00:26:05;;;;;;;24.73;17.50;;;14.10;99.90;;;;;;5076340;28;20861;-59
2024/03/22 00:28:31;;;;;;;24.40;17.73;;;14.10;99.90;;;;;;5114475;28;20200;-59
2024/03/22 00:30:56;;;;;;;24.97;17.43;;;14.10;99.90;;;;;;5111769;28;20252;-59
2024/03/22 00:33:22;;;;;;;24.03;16.83;;;14.10;99.90;;;;;;5112536;28;20176;-59
2024/03/22 00:35:48;;;;;;;27.67;17.97;;;14.10;99.90;;;;;;5111834;28;20172;-59
2024/03/22 00:38:13;;;;;;;25.13;16.87;;;14.10;99.90;;;;;;5114634;28;20237;-59
2024/03/22 00:40:39;;;;;;;24.80;17.23;;;14.10;99.90;;;;;;5110856;28;20667;-59
2024/03/22 00:43:06;;;;;;;23.23;17.23;;;14.10;99.90;;;;;;5093298;28;20174;-59
2024/03/22 00:45:31;;;;;;;28.23;18.77;;;14.10;99.90;;;;;;5109867;28;20178;-59
2024/03/22 00:47:57;;;;;;;23.67;16.27;;;14.10;99.90;;;;;;5111425;28;20969;-59
2024/03/22 00:50:23;;;;;;;24.60;17.37;;;14.10;99.90;;;;;;5114103;28;20170;-59
2024/03/22 00:52:50;;;;;;;22.90;17.07;;;14.10;99.90;;;;;;5111494;28;20210;-59
2024/03/22 00:55:16;;;;;;;28.03;17.37;;;14.10;99.90;;;;;;5111681;28;20621;-59
2024/03/22 00:57:42;;;;;;;23.97;17.83;;;14.10;99.90;;;;;;5108615;28;20428;-59
2024/03/22 01:00:09;;;;;;;25.93;18.63;;;14.10;99.90;;;;;;5092095;28;20178;-59
2024/03/22 01:02:35;;;;;;;22.13;15.80;;;14.00;99.90;;;;;;5100680;28;20219;-59
2024/03/22 01:05:00;;;;;;;24.10;16.53;;;14.00;99.90;;;;;;5100605;28;20427;-59
2024/03/22 01:07:26;;;;;;;25.10;17.33;;;14.00;99.90;;;;;;5108058;28;20175;-60
2024/03/22 01:09:52;;;;;;;25.83;16.90;;;14.10;99.90;;;;;;5109405;28;20621;-59
2024/03/22 01:12:17;;;;;;;25.07;18.40;;;14.10;99.90;;;;;;5111606;28;20201;-59
2024/03/22 01:14:43;;;;;;;25.30;17.47;;;14.10;99.90;;;;;;5111367;28;20632;-59
2024/03/22 01:17:09;;;;;;;22.80;16.47;;;14.10;99.90;;;;;;5112868;28;20622;-59
2024/03/22 01:19:35;;;;;;;23.83;18.73;;;14.10;99.90;;;;;;5091918;28;20184;-59
2024/03/22 01:22:00;;;;;;;23.97;16.40;;;14.10;99.90;;;;;;5096270;28;20175;-59
2024/03/22 01:24:26;;;;;;;24.50;16.97;;;14.20;99.90;;;;;;5113063;28;20630;-59
2024/03/22 01:26:52;;;;;;;22.70;15.47;;;14.20;99.90;;;;;;5111549;28;20516;-59
2024/03/22 01:29:17;;;;;;;24.93;16.97;;;14.20;99.90;;;;;;5093491;28;20550;-59
2024/03/22 01:31:43;;;;;;;23.13;16.30;;;14.20;99.90;;;;;;5113305;28;20650;-60
2024/03/22 01:34:09;;;;;;;25.73;16.60;;;14.20;99.90;;;;;;5092707;28;20409;-59
2024/03/22 01:36:34;;;;;;;23.43;16.80;;;14.20;99.90;;;;;;5109306;28;20279;-59
2024/03/22 01:39:00;;;;;;;26.07;17.20;;;14.20;99.90;;;;;;5112634;28;20170;-59
2024/03/22 01:41:26;;;;;;;26.93;16.40;;;14.20;99.90;;;;;;5111356;28;20201;-59
2024/03/22 01:43:52;;;;;;;24.53;16.40;;;14.20;99.90;;;;;;5110512;28;20326;-59
2024/03/22 01:46:18;;;;;;;24.27;16.30;;;14.20;99.90;;;;;;5111192;28;20457;-59
2024/03/22 01:48:44;;;;;;;25.77;16.83;;;14.30;99.90;;;;;;5113023;28;20201;-59
2024/03/22 01:51:10;;;;;;;24.23;17.30;;;14.30;99.90;;;;;;5092293;28;21038;-59
2024/03/22 01:53:37;;;;;;;24.37;17.27;;;14.30;99.90;;;;;;5099242;28;20421;-59
2024/03/22 01:56:03;;;;;;;24.60;16.50;;;14.30;99.90;;;;;;5112430;28;20479;-59
2024/03/22 01:58:29;;;;;;;26.30;17.30;;;14.40;99.90;;;;;;5103214;28;20518;-59
2024/03/22 02:00:56;;;;;;;19.83;15.50;;;14.40;99.90;;;;;;5092439;28;20536;-59
2024/03/22 02:03:21;;;;;;;25.30;16.73;;;14.40;99.90;;;;;;5111950;28;20265;-59
2024/03/22 02:05:47;;;;;;;25.00;16.83;;;14.40;99.90;;;;;;5099199;28;20516;-59
2024/03/22 02:08:13;;;;;;;21.93;16.17;;;14.40;99.90;;;;;;5092566;28;20252;-59
2024/03/22 02:10:39;;;;;;;22.00;15.17;;;14.40;99.90;;;;;;5114534;28;20201;-59
2024/03/22 02:13:04;;;;;;;23.93;16.50;;;14.40;99.90;;;;;;5114543;28;20509;-60
2024/03/22 02:15:31;;;;;;;25.10;16.77;;;14.40;99.90;;;;;;5115100;28;20181;-60
2024/03/22 02:17:56;;;;;;;25.27;16.40;;;14.40;99.90;;;;;;5114559;28;20174;-60
2024/03/22 02:20:22;;;;;;;22.50;16.30;;;14.40;99.90;;;;;;5116705;28;20413;-59
2024/03/22 02:22:48;;;;;;;21.50;15.80;;;14.40;99.90;;;;;;5115016;28;20180;-59
2024/03/22 02:25:14;;;;;;;22.23;14.90;;;14.40;99.90;;;;;;5096234;28;20177;-59
2024/03/22 02:27:39;;;;;;;22.27;16.03;;;14.40;99.90;;;;;;5096474;28;20179;-60
2024/03/22 02:30:06;;;;;;;23.50;15.90;;;14.40;99.90;;;;;;5108170;28;20197;-59
2024/03/22 02:32:31;;;;;;;22.50;16.03;;;14.40;99.90;;;;;;5114796;28;20176;-59
2024/03/22 02:34:57;;;;;;;23.30;15.53;;;14.40;99.90;;;;;;5114108;28;20404;-59
2024/03/22 02:37:23;;;;;;;22.60;17.60;;;14.40;99.90;;;;;;5116613;28;20595;-59
2024/03/22 02:39:48;;;;;;;24.33;16.40;;;14.40;99.90;;;;;;5114688;28;20581;-59
2024/03/22 02:42:14;;;;;;;23.10;16.13;;;14.40;99.90;;;;;;5109632;28;20209;-60
2024/03/22 02:44:42;;;;;;;23.70;16.50;;;14.50;99.90;;;;;;5096296;28;20172;-59
2024/03/22 02:47:13;;;;;;;19.63;14.80;;;14.50;99.90;;;;;;5106766;28;20190;-59
2024/03/22 02:49:40;;;;;;;22.60;16.07;;;14.60;99.90;;;;;;5109385;28;20460;-59
2024/03/22 02:52:05;;;;;;;21.53;15.67;;;14.60;99.90;;;;;;5115775;28;20396;-59
2024/03/22 02:54:31;;;;;;;19.93;15.87;;;14.50;99.90;;;;;;5114262;28;20435;-59
2024/03/22 02:56:57;;;;;;;21.30;15.10;;;14.60;99.90;;;;;;5112769;28;20193;-59
2024/03/22 02:59:26;;;;;;;21.00;14.70;;;14.60;99.90;;;;;;5100859;28;20182;-59
2024/03/22 03:01:52;;;;;;;21.77;15.17;;;14.60;99.90;;;;;;5095572;28;20551;-59
2024/03/22 03:04:18;;;;;;;21.03;14.70;;;14.60;99.90;;;;;;5106350;28;20424;-59
2024/03/22 03:06:45;;;;;;;21.80;15.90;;;14.60;99.90;;;;;;5106891;28;20236;-59
2024/03/22 03:09:11;;;;;;;22.37;14.97;;;14.60;99.90;;;;;;5095016;28;20250;-60
2024/03/22 03:11:40;;;;;;;25.77;17.10;;;14.60;99.90;;;;;;5097251;28;20425;-59
2024/03/22 03:14:06;;;;;;;19.60;15.20;;;14.60;99.90;;;;;;5093548;28;20978;-59
2024/03/22 03:16:32;;;;;;;19.00;15.37;;;14.60;99.90;;;;;;5077113;28;20414;-59
2024/03/22 03:18:57;;;;;;;20.37;14.47;;;14.60;99.90;;;;;;5082121;28;20973;-59
2024/03/22 03:21:23;;;;;;;23.97;16.90;;;14.60;99.90;;;;;;5097833;28;20579;-59
2024/03/22 03:23:49;;;;;;;20.10;15.00;;;14.60;99.90;;;;;;5094556;28;20189;-60
2024/03/22 03:26:14;;;;;;;24.63;15.87;;;14.60;99.90;;;;;;5105293;28;20620;-59
2024/03/22 03:28:40;;;;;;;23.07;14.97;;;14.60;99.90;;;;;;5095365;28;20216;-59
2024/03/22 03:31:06;;;;;;;20.50;14.80;;;14.60;99.90;;;;;;5093168;28;20176;-59
2024/03/22 03:33:32;;;;;;;22.47;16.10;;;14.60;99.90;;;;;;5107397;28;20255;-59
2024/03/22 03:35:57;;;;;;;20.37;16.07;;;14.60;99.90;;;;;;5101161;28;20194;-59
2024/03/22 03:38:23;;;;;;;22.93;16.20;;;14.60;99.90;;;;;;5092899;28;20647;-60
2024/03/22 03:40:49;;;;;;;20.30;15.60;;;14.60;99.90;;;;;;5085450;28;20664;-59
2024/03/22 03:43:15;;;;;;;21.23;15.83;;;14.70;99.90;;;;;;5110457;28;20642;-59
2024/03/22 03:45:43;;;;;;;21.40;16.40;;;14.70;99.90;;;;;;5099343;28;20173;-59
2024/03/22 03:48:08;;;;;;;24.27;16.87;;;14.70;99.90;;;;;;5098518;28;20195;-59
2024/03/22 03:50:34;;;;;;;22.17;15.97;;;14.70;99.90;;;;;;5100630;28;20426;-60
2024/03/22 03:53:00;;;;;;;19.83;15.60;;;14.60;99.90;;;;;;5101017;28;20183;-59
2024/03/22 03:55:26;;;;;;;19.90;15.53;;;14.60;99.90;;;;;;5096084;28;20258;-59
2024/03/22 03:57:52;;;;;;;22.30;16.83;;;14.60;99.90;;;;;;5106117;28;20228;-59
2024/03/22 04:00:20;;;;;;;20.97;16.83;;;14.60;99.90;;;;;;5101944;28;21178;-59
2024/03/22 04:02:45;;;;;;;22.80;17.67;;;14.70;99.90;;;;;;5098389;28;20181;-59
2024/03/22 04:05:11;;;;;;;20.47;16.07;;;14.60;99.90;;;;;;5100109;28;20444;-59
2024/03/22 04:07:39;;;;;;;19.80;15.73;;;14.60;99.90;;;;;;5109221;28;20193;-59
2024/03/22 04:10:06;;;;;;;19.00;15.40;;;14.60;99.90;;;;;;5095498;28;20421;-59
2024/03/22 04:12:31;;;;;;;20.90;16.17;;;14.60;99.90;;;;;;5076069;28;20426;-59
2024/03/22 04:14:57;;;;;;;21.17;16.20;;;14.60;99.90;;;;;;5094718;28;20417;-59
2024/03/22 04:17:23;;;;;;;21.87;15.40;;;14.60;99.90;;;;;;5084287;28;20183;-59
2024/03/22 04:19:49;;;;;;;23.90;15.63;;;14.60;99.90;;;;;;5112747;28;20177;-59
2024/03/22 04:22:15;;;;;;;22.40;15.13;;;14.50;99.90;;;;;;5094854;28;20202;-59
2024/03/22 04:24:41;;;;;;;24.80;15.87;;;14.50;99.90;;;;;;5108963;28;20826;-60
2024/03/22 04:27:07;;;;;;;24.13;17.80;;;14.50;99.90;;;;;;5111757;28;20177;-60
2024/03/22 04:29:33;;;;;;;20.63;15.07;;;14.40;99.90;;;;;;5112263;28;20201;-59
2024/03/22 04:31:59;;;;;;;22.33;16.30;;;14.40;99.90;;;;;;5114405;28;20410;-59
2024/03/22 04:34:24;;;;;;;21.90;17.20;;;14.30;99.90;;;;;;5110317;28;20214;-59
2024/03/22 04:36:52;;;;;;;19.63;15.50;;;14.20;99.90;;;;;;5110965;28;20229;-59
2024/03/22 04:39:20;;;;;;;19.33;15.47;;;14.20;99.90;;;;;;5113137;28;20178;-59
2024/03/22 04:41:45;;;;;;;19.93;14.60;;;14.20;99.90;;;;;;5095063;28;20420;-59
2024/03/22 04:44:11;;;;;;;18.80;15.13;;;14.20;99.90;;;;;;5097920;28;20778;-59
2024/03/22 04:46:37;;;;;;;19.10;15.50;;;14.20;99.90;;;;;;5114483;28;20173;-59
2024/03/22 04:49:02;;;;;;;22.03;16.23;;;14.20;99.90;;;;;;5111435;28;20208;-59
2024/03/22 04:51:28;;;;;;;20.23;14.30;;;14.20;99.90;;;;;;5112067;28;20629;-59
2024/03/22 04:53:54;;;;;;;20.70;14.50;;;14.20;99.90;;;;;;5113735;28;20192;-59
2024/03/22 04:56:20;;;;;;;22.10;15.43;;;14.10;99.90;;;;;;5112338;28;20644;-59
2024/03/22 04:58:45;;;;;;;18.83;13.80;;;14.10;99.90;;;;;;5093059;28;20224;-59
2024/03/22 05:01:12;;;;;;;20.20;14.37;;;14.10;99.90;;;;;;5091158;28;20582;-60
2024/03/22 05:03:38;;;;;;;21.00;15.37;;;14.10;99.90;;;;;;5114071;28;20197;-59
2024/03/22 05:06:06;;;;;;;17.97;14.80;;;14.10;99.90;;;;;;5111073;28;20426;-59
2024/03/22 05:08:32;;;;;;;18.53;14.20;;;14.20;99.90;;;;;;5111375;28;20494;-59
2024/03/22 05:10:58;;;;;;;17.60;13.60;;;14.20;99.90;;;;;;5104760;28;20907;-59
2024/03/22 05:13:23;;;;;;;21.50;13.83;;;14.20;99.90;;;;;;5101231;28;20477;-59
2024/03/22 05:15:49;;;;;;;16.10;13.10;;;14.30;99.90;;;;;;5112735;28;20174;-59
2024/03/22 05:18:15;;;;;;;18.53;13.43;;;14.30;99.90;;;;;;5106827;28;20186;-59
2024/03/22 05:20:40;;;;;;;16.97;12.37;;;14.30;99.90;;;;;;5103388;28;20184;-60
2024/03/22 05:23:06;;;;;;;19.60;14.50;;;14.20;99.90;;;;;;5074540;28;20179;-58
2024/03/22 05:25:32;;;;;;;17.93;13.67;;;14.10;99.90;;;;;;5093052;28;20180;-58
2024/03/22 05:27:58;;;;;;;17.53;14.33;;;14.10;99.90;;;;;;5106004;28;20204;-58
2024/03/22 05:30:23;;;;;;;17.77;14.53;;;14.10;99.90;;;;;;5105484;28;20668;-58
2024/03/22 05:32:50;;;;;;;19.10;14.03;;;14.20;99.90;;;;;;5092972;28;20171;-58
2024/03/22 05:35:16;;;;;;;19.20;15.03;;;14.30;99.90;;;;;;5079354;28;20638;-58
2024/03/22 05:37:42;;;;;;;16.67;14.27;;;14.20;99.90;;;;;;5092005;28;20454;-58
2024/03/22 05:40:09;;;;;;;15.47;12.57;;;14.10;99.90;;;;;;5112667;28;20423;-58
2024/03/22 05:42:34;;;;;;;14.60;12.87;;;14.10;99.90;;;;;;5101737;28;20411;-58
2024/03/22 05:45:00;;;;;;;16.80;13.50;;;14.10;99.90;;;;;;5095928;28;20416;-58
2024/03/22 05:47:26;;;;;;;18.40;13.63;;;14.10;99.90;;;;;;5092279;28;20265;-58
2024/03/22 05:49:52;;;;;;;18.23;12.83;;;14.10;99.90;;;;;;5098504;28;20454;-58
2024/03/22 05:52:18;;;;;;;17.57;15.10;;;14.10;99.90;;;;;;5092776;28;20260;-58
2024/03/22 05:54:44;;;;;;;17.57;13.27;;;14.10;99.90;;;;;;5100311;28;20409;-58
2024/03/22 05:57:10;;;;;;;16.03;13.37;;;14.10;99.90;;;;;;5090060;28;20427;-58
2024/03/22 05:59:36;;;;;;;19.57;14.27;;;14.10;99.90;;;;;;5096605;28;20495;-58
2024/03/22 06:02:02;;;;;;;21.03;12.70;;;14.20;99.90;;;;;;5094282;28;20419;-58
2024/03/22 06:04:28;;;;;;;15.43;12.87;;;14.30;99.90;;;;;;5092682;28;20834;-58
2024/03/22 06:06:54;;;;;;;15.50;11.90;;;14.30;99.90;;;;;;5093304;28;20255;-58
2024/03/22 06:09:45;;;;;;;15.37;13.60;;;14.30;99.90;;;;;;5094692;28;20210;-58
2024/03/22 06:12:06;;;;;;;16.63;13.60;;;14.20;99.90;;;;;;5100381;28;20424;-58
2024/03/22 06:14:33;;;;;;;16.33;13.70;;;14.30;99.90;;;;;;5099903;28;20428;-58
2024/03/22 06:16:59;;;;;;;16.93;15.33;;;14.40;99.90;;;;;;5094690;28;20419;-58
2024/03/22 06:19:24;;;;;;;13.23;11.83;;;14.40;99.90;;;;;;5107311;28;20909;-58
2024/03/22 06:21:50;;;;;;;17.10;15.30;;;14.50;99.90;;;;;;5103746;28;20185;-58
2024/03/22 06:24:16;;;;;;;15.13;13.53;;;14.50;99.90;;;;;;5112214;28;20181;-58
2024/03/22 06:26:41;;;;;;;17.13;12.83;;;14.50;99.90;;;;;;5110900;28;20178;-65
2024/03/22 06:29:07;;;;;;;14.80;13.40;;;14.60;99.90;;;;;;5110288;28;20249;-61
2024/03/22 06:31:33;;;;;;;15.10;12.83;;;14.60;99.90;;;;;;5093209;28;20577;-63
2024/03/22 06:34:02;;;;;;;12.90;11.60;;;14.60;99.90;;;;;;5095852;28;20401;-65
2024/03/22 06:36:34;;;;;;;14.33;10.60;;;14.60;99.90;;;;;;5092140;28;20979;-65
2024/03/22 06:39:00;;;;;;;12.70;10.93;;;14.50;99.90;;;;;;5100827;28;20974;-65
2024/03/22 06:41:27;;;;;;;17.70;11.63;;;14.50;99.90;;;;;;5109730;28;20502;-64
2024/03/22 06:43:53;;;;;;;14.90;11.90;;;14.50;99.90;;;;;;5112496;28;20403;-64
2024/03/22 06:46:19;;;;;;;15.37;11.70;;;14.60;99.90;;;;;;5109492;28;20816;-64
2024/03/22 06:48:46;;;;;;;12.50;11.00;;;14.60;99.90;;;;;;5097952;28;20247;-64
2024/03/22 06:51:12;;;;;;;14.43;12.87;;;14.60;99.90;;;;;;5104788;28;20270;-64
2024/03/22 06:53:38;;;;;;;20.73;12.60;;;14.60;99.90;;;;;;5098382;28;20454;-64
2024/03/22 06:56:04;;;;;;;13.90;12.37;;;14.60;99.90;;;;;;5091429;28;20296;-64
2024/03/22 06:58:30;;;;;;;14.10;12.07;;;14.60;99.90;;;;;;5098578;28;20441;-64
2024/03/22 07:00:55;;;;;;;14.03;12.17;;;14.70;99.90;;;;;;5100864;28;20428;-65
2024/03/22 07:03:21;;;;;;;16.70;13.87;;;14.70;99.90;;;;;;5099032;28;20171;-62
2024/03/22 07:05:47;;;;;;;14.73;13.33;;;14.70;99.90;;;;;;5096002;28;20209;-64
2024/03/22 07:08:13;;;;;;;16.30;13.70;;;14.80;99.90;;;;;;5096476;28;20222;-64
2024/03/22 07:10:39;;;;;;;14.87;13.27;;;14.80;99.90;;;;;;5082967;28;20908;-65
2024/03/22 07:13:06;;;;;;;23.47;15.87;;;14.80;99.90;;;;;;5102181;28;20174;-64
2024/03/22 07:15:32;;;;;;;17.83;14.73;;;14.80;99.90;;;;;;5095109;28;20421;-65
2024/03/22 07:17:58;;;;;;;17.57;13.23;;;14.80;99.90;;;;;;5101873;28;20435;-64
2024/03/22 07:20:25;;;;;;;16.50;14.80;;;14.80;99.90;;;;;;5095291;28;20405;-64
2024/03/22 07:22:51;;;;;;;19.73;15.37;;;14.80;99.90;;;;;;5109882;28;20524;-66
2024/03/22 07:25:16;;;;;;;18.50;15.30;;;14.90;99.90;;;;;;5112099;28;20917;-64
2024/03/22 07:27:42;;;;;;;21.90;15.37;;;14.90;99.90;;;;;;5097804;28;20591;-64
2024/03/22 07:30:08;;;;;;;18.73;16.27;;;14.90;99.90;;;;;;5103172;28;20190;-64
2024/03/22 07:32:34;;;;;;;19.90;15.80;;;14.90;99.90;;;;;;5082226;28;20194;-64
2024/03/22 07:35:00;;;;;;;16.20;14.50;;;14.90;99.90;;;;;;5099490;28;20417;-65
2024/03/22 07:37:25;;;;;;;17.17;14.70;;;14.90;99.90;;;;;;5099713;28;20219;-64
2024/03/22 07:39:51;;;;;;;16.00;14.30;;;14.90;99.90;;;;;;5104015;28;20183;-65
2024/03/22 07:42:17;;;;;;;18.53;15.77;;;14.90;99.90;;;;;;5106846;28;20182;-67
2024/03/22 07:44:43;;;;;;;17.17;15.00;;;14.90;99.90;;;;;;5090476;28;20514;-67
2024/03/22 07:47:09;;;;;;;17.70;14.90;;;14.90;99.90;;;;;;5074703;28;20164;-67
2024/03/22 07:49:36;;;;;;;17.33;15.20;;;15.00;99.90;;;;;;5090091;28;20258;-68
2024/03/22 07:52:02;;;;;;;21.27;16.23;;;15.10;99.90;;;;;;5099406;28;20420;-67
2024/03/22 07:54:28;;;;;;;17.80;14.97;;;15.10;99.90;;;;;;5092696;28;20394;-65
2024/03/22 07:56:53;;;;;;;18.73;16.50;;;15.20;99.90;;;;;;5103518;28;20170;-66
2024/03/22 07:59:19;;;;;;;122.40;85.67;;;15.20;99.90;;;;;;5092423;28;20208;-70
2024/03/22 08:01:45;;;;;;;28.93;22.77;;;15.30;99.90;;;;;;5093622;28;20247;-64
2024/03/22 08:04:11;;;;;;;27.97;23.50;;;15.40;99.90;;;;;;5112408;28;20172;-64
2024/03/22 08:06:36;;;;;;;24.83;17.03;;;15.40;99.90;;;;;;5088077;28;20180;-64
2024/03/22 08:09:03;;;;;;;20.23;16.60;;;15.40;99.90;;;;;;5098218;28;20555;-66
2024/03/22 08:11:29;;;;;;;20.60;17.00;;;15.50;99.90;;;;;;5106277;28;20592;-64
2024/03/22 08:14:01;;;;;;;20.80;15.93;;;15.50;99.90;;;;;;5098399;28;20501;-64
2024/03/22 08:16:27;;;;;;;22.13;18.30;;;15.60;99.90;;;;;;5097673;28;20182;-64
2024/03/22 08:18:53;;;;;;;24.47;17.20;;;15.60;99.90;;;;;;5114363;28;20788;-64
2024/03/22 08:21:19;;;;;;;23.70;17.57;;;15.60;99.90;;;;;;5112589;28;20417;-64
2024/03/22 08:23:45;;;;;;;22.10;16.87;;;15.60;99.90;;;;;;5112547;28;20229;-64
2024/03/22 08:26:10;;;;;;;23.97;17.13;;;15.70;99.90;;;;;;5114084;28;20195;-64
2024/03/22 08:28:38;;;;;;;27.30;22.37;;;15.70;99.90;;;;;;5104975;28;20208;-64
2024/03/22 08:31:06;;;;;;;23.70;18.37;;;15.60;99.90;;;;;;5114492;28;20156;-64
2024/03/22 08:33:32;;;;;;;25.43;17.07;;;15.60;99.90;;;;;;5111878;28;20458;-64
2024/03/22 08:35:58;;;;;;;21.67;18.70;;;15.70;99.90;;;;;;5110075;28;20417;-64
2024/03/22 08:38:24;;;;;;;20.67;18.07;;;15.70;99.90;;;;;;5109842;28;20163;-64
2024/03/22 08:40:50;;;;;;;21.30;17.90;;;15.70;99.90;;;;;;5110120;28;20172;-64
2024/03/22 08:43:16;;;;;;;19.97;15.70;;;15.80;99.90;;;;;;5074889;28;20446;-63
2024/03/22 08:45:42;;;;;;;20.90;15.63;;;15.90;99.90;;;;;;5074381;28;20453;-64
2024/03/22 08:48:07;;;;;;;20.60;15.60;;;16.00;99.90;;;;;;5093369;28;20481;-65
2024/03/22 08:50:34;;;;;;;23.43;17.27;;;16.10;99.90;;;;;;5093208;28;20918;-66
2024/03/22 08:53:03;;;;;;;20.63;14.70;;;16.20;99.90;;;;;;5093168;28;20631;-67
2024/03/22 08:55:29;;;;;;;54.63;40.33;;;16.30;99.90;;;;;;5089902;28;20501;-67
2024/03/22 08:57:54;;;;;;;37.50;30.33;;;16.40;99.90;;;;;;5094853;28;20893;-66
2024/03/22 09:00:20;;;;;;;25.23;19.63;;;16.60;99.90;;;;;;5093028;28;20416;-67
2024/03/22 09:02:47;;;;;;;27.83;23.80;;;16.80;99.90;;;;;;5092990;28;20247;-67
2024/03/22 09:05:12;;;;;;;23.50;18.90;;;16.80;99.90;;;;;;5092490;28;20415;-67
2024/03/22 09:07:38;;;;;;;23.47;19.37;;;16.90;99.90;;;;;;5092583;28;20793;-67
2024/03/22 09:10:06;;;;;;;21.40;18.13;;;16.80;99.90;;;;;;5092732;28;20181;-67
2024/03/22 09:12:32;;;;;;;22.67;20.37;;;16.70;99.90;;;;;;5092617;28;20493;-67
2024/03/22 09:14:57;;;;;;;22.47;18.30;;;16.70;99.90;;;;;;5092214;28;20497;-67
2024/03/22 09:17:23;;;;;;;22.87;17.47;;;16.70;99.90;;;;;;5092950;28;20611;-67
2024/03/22 09:19:49;;;;;;;24.03;17.37;;;16.50;99.90;;;;;;5092121;28;20281;-67
2024/03/22 09:22:15;;;;;;;20.67;16.30;;;16.50;99.90;;;;;;5092379;28;20172;-67
2024/03/22 09:24:40;;;;;;;20.33;18.23;;;16.60;99.90;;;;;;5093067;28;20172;-67
2024/03/22 09:27:10;;;;;;;18.80;16.27;;;16.70;99.90;;;;;;5092550;28;20193;-67
2024/03/22 09:29:38;;;;;;;17.50;15.70;;;16.90;99.90;;;;;;5073978;28;20448;-67
2024/03/22 09:32:04;;;;;;;22.43;15.40;;;16.80;99.90;;;;;;5092956;28;20974;-67
2024/03/22 09:34:31;;;;;;;16.60;14.87;;;16.90;99.90;;;;;;5091926;28;20411;-68
2024/03/22 09:36:57;;;;;;;31.07;25.90;;;16.90;99.90;;;;;;5094052;28;20457;-66
2024/03/22 09:39:23;;;;;;;46.07;37.27;;;17.00;99.90;;;;;;5091388;28;20471;-66
2024/03/22 09:41:51;;;;;;;18.70;16.80;;;17.10;99.90;;;;;;5092203;28;20523;-67
2024/03/22 09:44:19;;;;;;;14.18;12.70;;;17.20;99.90;;;;;;5111910;28;20734;-71
2024/03/22 09:46:47;;;;;;;13.43;11.27;;;17.30;95.70;;;;;;5093344;28;20183;-67
2024/03/22 09:49:13;;;;;;;15.87;12.00;;;17.30;94.10;;;;;;5111396;28;20518;-67
2024/03/22 09:51:43;;;;;;;15.17;13.60;;;17.30;93.40;;;;;;5112136;28;20646;-67
2024/03/22 09:54:10;;;;;;;13.40;12.00;;;17.30;92.30;;;;;;5111141;28;20417;-68
2024/03/22 09:56:39;;;;;;;18.23;14.23;;;17.30;93.50;;;;;;5092072;28;20417;-67
2024/03/22 09:59:06;;;;;;;13.27;11.97;;;17.20;93.40;;;;;;5109943;28;20425;-67
2024/03/22 10:01:34;;;;;;;13.50;11.70;;;17.20;93.30;;;;;;5112395;28;20893;-67
2024/03/22 10:04:00;;;;;;;15.07;12.10;;;17.10;91.80;;;;;;5111053;28;20425;-67
2024/03/22 10:06:26;;;;;;;14.60;12.30;;;17.10;92.40;;;;;;5110555;28;20673;-67
2024/03/22 10:08:51;;;;;;;15.90;13.23;;;17.10;93.60;;;;;;5112580;28;20501;-67
2024/03/22 10:11:18;;;;;;;12.27;10.97;;;17.20;93.40;;;;;;5111049;28;20489;-67
2024/03/22 10:13:44;;;;;;;14.30;11.17;;;17.20;93.50;;;;;;5110369;28;20228;-67
2024/03/22 10:16:10;;;;;;;12.53;11.23;;;17.10;93.00;;;;;;5109318;28;20935;-67
2024/03/22 10:18:36;;;;;;;13.57;11.80;;;17.10;92.70;;;;;;5112257;28;20405;-67
2024/03/22 10:21:05;;;;;;;14.90;11.40;;;17.10;92.60;;;;;;5110887;28;20178;-67
2024/03/22 10:23:31;;;;;;;14.90;11.30;;;17.10;92.50;;;;;;5110352;28;20517;-67
2024/03/22 10:25:58;;;;;;;14.73;13.23;;;17.00;92.90;;;;;;5110815;28;20389;-67
2024/03/22 10:28:27;;;;;;;13.57;12.17;;;17.10;93.20;;;;;;5112071;28;20451;-62
2024/03/22 10:30:54;;;;;;;13.17;11.30;;;17.10;92.40;;;;;;5110574;28;20417;-67
2024/03/22 10:33:22;;;;;;;11.40;10.23;;;17.10;92.90;;;;;;5092110;28;20421;-67
2024/03/22 10:35:51;;;;;;;14.60;12.70;;;17.10;92.70;;;;;;5075687;28;20426;-66
2024/03/22 10:38:19;;;;;;;13.00;10.47;;;17.10;93.40;;;;;;5094181;28;20460;-67
2024/03/22 10:40:46;;;;;;;11.97;10.77;;;17.10;92.90;;;;;;5115967;28;20478;-67
2024/03/22 10:43:16;;;;;;;13.70;10.47;;;17.10;92.60;;;;;;5114601;28;20417;-67
2024/03/22 10:45:42;;;;;;;13.57;10.57;;;17.10;93.00;;;;;;5113925;28;20420;-67
2024/03/22 10:48:13;;;;;;;13.07;11.20;;;17.20;93.70;;;;;;5114472;28;20456;-67
2024/03/22 10:50:40;;;;;;;13.63;12.10;;;17.20;94.00;;;;;;5115978;28;20388;-67
2024/03/22 10:53:11;;;;;;;14.07;10.67;;;17.20;94.30;;;;;;5114437;28;20429;-66
2024/03/22 10:55:43;;;;;;;18.00;12.97;;;17.20;93.90;;;;;;5112299;28;20893;-67
2024/03/22 10:58:21;;;;;;;13.63;12.23;;;17.20;93.70;;;;;;5116403;28;20405;-67
2024/03/22 11:00:47;;;;;;;12.57;10.70;;;17.20;93.70;;;;;;5098854;28;20420;-67
2024/03/22 11:03:13;;;;;;;11.23;10.10;;;17.10;93.90;;;;;;5113992;28;20413;-67
2024/03/22 11:05:46;;;;;;;15.23;13.73;;;17.10;93.20;;;;;;5113367;28;20473;-67
2024/03/22 11:08:12;;;;;;;12.07;10.93;;;17.00;93.80;;;;;;5114074;28;20453;-65
2024/03/22 11:10:37;;;;;;;11.87;10.50;;;17.10;93.70;;;;;;5115486;28;20397;-67
2024/03/22 11:13:05;;;;;;;12.30;11.07;;;17.10;93.40;;;;;;5085949;28;20689;-67
2024/03/22 11:15:31;;;;;;;17.17;10.50;;;17.10;93.50;;;;;;5081565;28;20507;-67
2024/03/22 11:17:57;;;;;;;12.20;10.90;;;17.10;93.00;;;;;;5115922;28;20806;-67
2024/03/22 11:20:23;;;;;;;14.70;11.10;;;17.00;93.10;;;;;;5112866;28;20443;-67
2024/03/22 11:22:52;;;;;;;11.80;9.90;;;17.00;93.20;;;;;;5113961;28;20443;-69
2024/03/22 11:25:19;;;;;;;16.47;11.70;;;17.00;92.90;;;;;;5113870;28;20419;-67
2024/03/22 11:27:45;;;;;;;12.23;11.00;;;16.90;92.70;;;;;;5114922;28;20647;-67
2024/03/22 11:30:11;;;;;;;10.57;9.57;;;16.90;93.90;;;;;;5113806;28;20471;-67
2024/03/22 11:32:44;;;;;;;10.90;9.90;;;16.90;92.80;;;;;;5113040;28;20461;-66
2024/03/22 11:35:11;;;;;;;10.03;9.00;;;16.90;92.70;;;;;;5113775;28;20892;-67
2024/03/22 11:37:39;;;;;;;9.67;8.77;;;16.90;93.20;;;;;;5115070;28;20456;-66
2024/03/22 11:40:06;;;;;;;9.23;8.30;;;16.90;93.00;;;;;;5113222;28;20509;-67
2024/03/22 11:42:35;;;;;;;7.47;6.60;;;16.90;91.00;;;;;;5107806;28;20465;-66
2024/03/22 11:45:02;;;;;;;9.50;7.47;;;16.90;90.30;;;;;;5094184;28;20460;-64
2024/03/22 11:47:28;;;;;;;9.80;8.80;;;17.00;90.30;;;;;;5107391;28;20432;-63
2024/03/22 11:49:55;;;;;;;10.60;9.63;;;17.00;90.20;;;;;;5106145;28;20493;-64
2024/03/22 11:52:25;;;;;;;9.93;8.93;;;17.00;90.90;;;;;;5094799;28;20430;-64
2024/03/22 11:54:52;;;;;;;9.03;8.13;;;17.10;91.30;;;;;;5093392;28;20902;-64
2024/03/22 11:57:20;;;;;;;10.73;9.67;;;17.20;91.10;;;;;;5111032;28;20429;-64
2024/03/22 11:59:46;;;;;;;9.87;8.90;;;17.40;92.20;;;;;;5110848;28;20429;-64
2024/03/22 12:02:12;;;;;;;12.30;10.17;;;17.60;92.20;;;;;;5114851;28;20406;-64
2024/03/22 12:04:48;;;;;;;11.57;9.20;;;17.70;92.00;;;;;;5094665;28;20247;-63
2024/03/22 12:07:14;;;;;;;10.10;9.10;;;17.90;91.70;;;;;;5105425;28;20428;-72
2024/03/22 12:09:41;;;;;;;12.57;9.33;;;18.00;89.90;;;;;;5102508;28;20548;-64
2024/03/22 12:12:09;;;;;;;10.33;9.33;;;18.00;90.20;;;;;;5092963;28;20433;-64
2024/03/22 12:14:35;;;;;;;10.80;9.70;;;18.00;90.40;;;;;;5097355;28;20429;-63
2024/03/22 12:17:02;;;;;;;10.03;9.13;;;18.00;90.20;;;;;;5093664;28;20415;-69
2024/03/22 12:19:28;;;;;;;16.40;10.73;;;17.90;91.30;;;;;;5095358;28;20425;-62
2024/03/22 12:21:54;;;;;;;19.63;16.80;;;17.80;91.90;;;;;;5092056;28;20418;-64
2024/03/22 12:24:19;;;;;;;33.03;27.73;;;17.70;92.10;;;;;;5093100;28;20943;-64